createdAt,value
2019-03-22T00:05:42.450Z,47.93
2019-03-22T00:08:12.676Z,48.47
2019-03-22T00:10:42.951Z,51.30
2019-03-22T00:13:13.180Z,59.17
2019-03-22T00:15:43.504Z,58.17
2019-03-22T00:18:13.732Z,52.80
2019-03-22T00:20:43.953Z,61.13
2019-03-22T00:23:14.178Z,66.73
2019-03-22T00:25:44.444Z,60.80
2019-03-22T00:28:14.696Z,58.90
2019-03-22T00:30:44.936Z,57.63
2019-03-22T00:33:15.132Z,50.50
2019-03-22T00:35:45.337Z,48.73
2019-03-22T00:38:15.559Z,52.53
2019-03-22T00:40:45.781Z,54.90
2019-03-22T00:43:16.057Z,57.07
2019-03-22T00:45:46.322Z,54.30
2019-03-22T00:48:16.500Z,56.50
2019-03-22T00:50:46.769Z,57.87
2019-03-22T00:53:16.966Z,54.23
2019-03-22T00:55:47.212Z,48.70
2019-03-22T00:58:17.448Z,54.30
2019-03-22T01:00:47.704Z,65.90
2019-03-22T01:03:17.917Z,52.90
2019-03-22T01:05:48.167Z,63.67
2019-03-22T01:08:18.459Z,58.83
2019-03-22T01:10:48.694Z,64.20
2019-03-22T01:13:18.913Z,60.47
2019-03-22T01:15:49.151Z,64.70
2019-03-22T01:18:19.495Z,58.77
2019-03-22T01:20:49.761Z,65.73
2019-03-22T01:23:19.965Z,53.07
2019-03-22T01:25:50.235Z,69.60
2019-03-22T01:28:20.487Z,62.17
2019-03-22T01:30:50.753Z,53.77
2019-03-22T01:33:20.965Z,68.00
2019-03-22T01:35:51.200Z,64.43
2019-03-22T01:38:21.400Z,51.90
2019-03-22T01:40:51.645Z,53.30
2019-03-22T01:43:21.891Z,60.00
2019-03-22T01:45:52.139Z,59.70
2019-03-22T01:48:22.437Z,62.37
2019-03-22T01:50:52.759Z,68.70
2019-03-22T01:53:22.961Z,71.30
2019-03-22T01:55:53.200Z,71.43
2019-03-22T01:58:23.408Z,70.87
2019-03-22T02:00:53.775Z,66.40
2019-03-22T02:03:23.990Z,79.97
2019-03-22T02:05:54.224Z,68.87
2019-03-22T02:08:24.444Z,66.63
2019-03-22T02:10:54.685Z,75.23
2019-03-22T02:13:24.904Z,63.27
2019-03-22T02:15:55.135Z,73.07
2019-03-22T02:18:25.347Z,79.90
2019-03-22T02:20:55.617Z,71.77
2019-03-22T02:23:25.824Z,78.50
2019-03-22T02:25:56.035Z,80.10
2019-03-22T02:28:26.325Z,80.33
2019-03-22T02:30:56.563Z,83.90
2019-03-22T02:33:26.830Z,89.53
2019-03-22T02:35:57.007Z,89.93
2019-03-22T02:38:27.277Z,75.10
2019-03-22T02:40:57.510Z,79.33
2019-03-22T02:43:27.753Z,84.33
2019-03-22T02:45:57.983Z,75.57
2019-03-22T02:48:28.198Z,64.30
2019-03-22T02:50:58.424Z,72.23
2019-03-22T02:53:28.780Z,66.70
2019-03-22T02:55:59.431Z,63.63
2019-03-22T02:58:29.800Z,61.57
2019-03-22T03:01:00.022Z,59.83
2019-03-22T03:03:30.297Z,69.73
2019-03-22T03:06:00.500Z,71.20
2019-03-22T03:08:30.762Z,83.10
2019-03-22T03:11:01.027Z,67.20
2019-03-22T03:13:31.289Z,59.27
2019-03-22T03:16:01.491Z,61.30
2019-03-22T03:18:31.717Z,57.17
2019-03-22T03:21:02.004Z,59.73
2019-03-22T03:23:32.222Z,49.47
2019-03-22T03:26:02.415Z,49.97
2019-03-22T03:28:37.170Z,67.17
2019-03-22T03:31:04.536Z,57.77
2019-03-22T03:33:34.849Z,61.50
2019-03-22T03:36:05.140Z,59.03
2019-03-22T03:38:35.498Z,58.13
2019-03-22T03:41:06.043Z,52.07
2019-03-22T03:43:36.293Z,48.70
2019-03-22T03:46:06.508Z,46.23
2019-03-22T03:48:36.766Z,49.93
2019-03-22T03:51:06.948Z,47.57
2019-03-22T03:53:37.196Z,56.27
2019-03-22T03:56:07.972Z,52.40
2019-03-22T03:58:51.600Z,51.07
2019-03-22T04:01:10.126Z,52.90
2019-03-22T04:03:40.461Z,53.93
2019-03-22T04:06:10.704Z,52.20
2019-03-22T04:08:40.910Z,49.37
2019-03-22T04:11:11.124Z,50.70
2019-03-22T04:13:41.342Z,44.60
2019-03-22T04:16:11.563Z,57.40
2019-03-22T04:18:41.791Z,58.67
2019-03-22T04:21:12.003Z,54.80
2019-03-22T04:23:42.299Z,50.40
2019-03-22T04:26:12.557Z,55.37
2019-03-22T04:28:42.795Z,52.37
2019-03-22T04:31:13.020Z,64.20
2019-03-22T04:33:43.343Z,59.17
2019-03-22T04:36:13.586Z,54.23
2019-03-22T04:38:43.812Z,50.20
2019-03-22T04:41:14.026Z,54.17
2019-03-22T04:43:44.274Z,53.47
2019-03-22T04:46:16.193Z,58.03
2019-03-22T04:48:47.547Z,51.73
2019-03-22T04:51:18.819Z,49.53
2019-03-22T04:53:57.928Z,60.03
2019-03-22T04:56:30.196Z,57.00
2019-03-22T04:59:01.040Z,57.10
2019-03-22T05:01:32.342Z,48.33
2019-03-22T05:04:04.085Z,47.50
2019-03-22T05:06:35.801Z,55.87
2019-03-22T05:09:09.896Z,56.30
2019-03-22T05:11:40.726Z,53.80
2019-03-22T05:14:12.654Z,49.23
2019-03-22T05:16:45.915Z,49.73
2019-03-22T05:19:17.085Z,52.27
2019-03-22T05:21:48.234Z,53.30
2019-03-22T05:24:19.749Z,49.23
2019-03-22T05:26:50.628Z,49.67
2019-03-22T05:29:30.275Z,52.30
2019-03-22T05:32:08.021Z,46.20
2019-03-22T05:34:38.263Z,46.40
2019-03-22T05:37:08.695Z,41.97
2019-03-22T05:39:39.635Z,43.80
2019-03-22T05:42:09.897Z,45.67
2019-03-22T05:44:40.134Z,47.30
2019-03-22T05:47:10.360Z,46.13
2019-03-22T05:49:40.601Z,42.33
2019-03-22T05:52:10.814Z,52.07
2019-03-22T05:54:41.049Z,48.27
2019-03-22T05:57:13.785Z,47.70
2019-03-22T05:59:43.273Z,62.73
2019-03-22T06:02:13.597Z,47.00
2019-03-22T06:04:43.918Z,60.13
2019-03-22T06:07:14.156Z,49.40
2019-03-22T06:09:44.408Z,52.30
2019-03-22T06:12:14.620Z,53.13
2019-03-22T06:14:44.895Z,51.07
2019-03-22T06:17:15.129Z,58.83
2019-03-22T06:19:45.380Z,50.23
2019-03-22T06:22:15.616Z,53.93
2019-03-22T06:24:45.826Z,49.23
2019-03-22T06:27:16.012Z,54.67
2019-03-22T06:29:54.176Z,48.37
2019-03-22T06:32:18.554Z,55.83
2019-03-22T06:34:48.803Z,46.07
2019-03-22T06:37:19.051Z,53.50
2019-03-22T06:39:49.253Z,46.23
2019-03-22T06:42:19.488Z,53.33
2019-03-22T06:44:49.700Z,55.00
2019-03-22T06:47:19.942Z,51.73
2019-03-22T06:49:50.163Z,54.40
2019-03-22T06:52:20.494Z,54.83
2019-03-22T06:54:50.698Z,53.83
2019-03-22T06:57:20.948Z,64.30
2019-03-22T06:59:51.186Z,49.40
2019-03-22T07:02:21.476Z,52.37
2019-03-22T07:04:51.670Z,49.67
2019-03-22T07:07:21.888Z,52.37
2019-03-22T07:09:52.100Z,54.03
2019-03-22T07:12:22.355Z,56.10
2019-03-22T07:14:52.605Z,54.80
2019-03-22T07:17:24.005Z,56.97
2019-03-22T07:19:54.251Z,54.07
2019-03-22T07:22:24.499Z,58.60
2019-03-22T07:24:54.727Z,49.57
2019-03-22T07:27:24.942Z,52.77
2019-03-22T07:29:55.178Z,49.07
2019-03-22T07:32:25.389Z,46.63
2019-03-22T07:34:55.600Z,49.00
2019-03-22T07:37:25.873Z,48.63
2019-03-22T07:39:56.132Z,48.73
2019-03-22T07:42:26.424Z,46.53
2019-03-22T07:44:56.639Z,47.60
2019-03-22T07:47:26.944Z,47.40
2019-03-22T07:49:57.130Z,47.33
2019-03-22T07:52:27.362Z,42.67
2019-03-22T07:54:57.584Z,43.87
2019-03-22T07:57:27.846Z,46.10
2019-03-22T07:59:58.046Z,44.13
2019-03-22T08:02:28.345Z,47.40
2019-03-22T08:04:58.535Z,43.67
2019-03-22T08:07:29.199Z,42.00
2019-03-22T08:09:59.499Z,44.80
2019-03-22T08:12:29.874Z,42.87
2019-03-22T08:15:00.378Z,36.07
2019-03-22T08:17:30.710Z,42.83
2019-03-22T08:20:00.989Z,45.53
2019-03-22T08:22:31.454Z,48.20
2019-03-22T08:25:01.628Z,49.13
2019-03-22T08:27:31.913Z,46.67
2019-03-22T08:30:02.522Z,47.90
2019-03-22T08:32:32.788Z,54.60
2019-03-22T08:35:02.981Z,54.67
2019-03-22T08:37:33.320Z,54.07
2019-03-22T08:40:03.594Z,53.30
2019-03-22T08:42:33.909Z,59.63
2019-03-22T08:45:04.303Z,53.27
2019-03-22T08:47:34.852Z,56.10
2019-03-22T08:50:05.498Z,60.53
2019-03-22T08:52:35.699Z,57.27
2019-03-22T08:55:06.241Z,64.33
2019-03-22T08:57:36.531Z,56.93
2019-03-22T09:00:08.144Z,56.90
2019-03-22T09:18:21.820Z,64.27
2019-03-22T09:20:52.133Z,56.90
2019-03-22T09:23:22.435Z,54.83
2019-03-22T09:25:52.732Z,61.10
2019-03-22T09:28:22.960Z,56.40
2019-03-22T09:30:53.230Z,57.27
2019-03-22T09:33:23.451Z,56.10
2019-03-22T09:35:53.643Z,60.60
2019-03-22T09:38:23.900Z,54.27
2019-03-22T09:40:54.130Z,55.40
2019-03-22T09:43:24.475Z,62.50
2019-03-22T09:45:54.723Z,58.37
2019-03-22T09:48:25.059Z,60.10
2019-03-22T09:50:55.351Z,61.13
2019-03-22T09:53:25.626Z,67.53
2019-03-22T09:56:02.094Z,62.10
2019-03-22T09:58:39.821Z,59.97
2019-03-22T10:01:23.877Z,63.93
2019-03-22T10:04:49.708Z,61.93
2019-03-22T10:07:26.554Z,62.80
2019-03-22T10:13:48.319Z,56.73
2019-03-22T10:16:33.145Z,53.73
2019-03-22T10:19:11.690Z,54.33
2019-03-22T10:21:51.125Z,51.70
2019-03-22T10:24:30.241Z,58.33
2019-03-22T10:27:24.990Z,57.63
2019-03-22T10:33:39.978Z,55.43
2019-03-22T10:36:50.068Z,53.83
2019-03-22T10:39:32.602Z,64.40
2019-03-22T10:59:08.739Z,49.17
2019-03-22T15:15:09.808Z,42.23
2019-03-22T15:18:17.997Z,52.43
2019-03-22T15:21:05.891Z,49.57
2019-03-22T15:24:10.826Z,50.37
2019-03-22T15:26:59.032Z,49.10
2019-03-22T15:29:48.883Z,45.37
2019-03-22T15:32:41.258Z,51.17
2019-03-22T15:35:38.417Z,50.03
2019-03-22T15:38:40.146Z,53.13
2019-03-22T15:41:10.728Z,48.13
2019-03-22T15:43:59.732Z,49.70
2019-03-22T15:46:34.654Z,52.43
2019-03-22T15:49:06.082Z,51.40
2019-03-22T15:51:39.440Z,50.03
2019-03-22T15:54:09.912Z,50.00
2019-03-22T15:56:40.861Z,61.07
2019-03-22T15:59:11.882Z,47.27
2019-03-22T16:01:52.958Z,51.80
2019-03-22T16:04:24.283Z,52.60
2019-03-22T16:06:55.673Z,50.63
2019-03-22T16:09:33.035Z,50.03
2019-03-22T16:12:05.484Z,56.30
2019-03-22T16:14:36.011Z,53.07
2019-03-22T16:17:06.899Z,52.83
2019-03-22T16:19:37.428Z,52.00
2019-03-22T16:22:07.928Z,55.77
2019-03-22T16:24:41.225Z,51.47
2019-03-22T16:27:25.819Z,55.70
2019-03-22T16:29:57.394Z,54.50
2019-03-22T16:32:30.277Z,55.60
2019-03-22T16:35:02.328Z,55.90
2019-03-22T16:37:45.764Z,60.37
2019-03-22T16:40:23.867Z,56.87
2019-03-22T16:43:10.694Z,54.60
2019-03-22T16:45:56.249Z,50.80
2019-03-22T16:48:28.474Z,54.40
2019-03-22T16:50:59.012Z,54.93
2019-03-22T16:53:33.485Z,54.43
2019-03-22T16:56:04.513Z,53.80
2019-03-22T16:58:35.571Z,51.90
2019-03-22T17:01:07.167Z,51.40
2019-03-22T17:03:38.636Z,59.30
2019-03-22T17:06:18.744Z,49.37
2019-03-22T17:09:06.928Z,47.73
2019-03-22T17:11:49.140Z,52.33
2019-03-22T17:14:40.713Z,52.30
2019-03-22T17:17:31.719Z,48.67
2019-03-22T17:20:21.770Z,48.13
2019-03-22T17:22:53.262Z,49.43
2019-03-22T17:25:34.118Z,46.60
2019-03-22T17:28:17.009Z,53.07
2019-03-22T17:30:55.908Z,44.70
2019-03-22T17:33:43.097Z,46.80
2019-03-22T17:36:13.512Z,42.03
2019-03-22T17:38:44.319Z,45.60
2019-03-22T17:41:21.390Z,47.90
2019-03-22T17:43:51.531Z,46.33
2019-03-22T17:46:21.821Z,47.90
2019-03-22T17:48:54.037Z,51.30
2019-03-22T17:51:42.089Z,47.30
2019-03-22T17:54:26.270Z,47.17
2019-03-22T17:56:57.518Z,45.30
2019-03-22T17:59:28.670Z,54.57
2019-03-22T18:02:00.127Z,49.07
2019-03-22T18:04:30.563Z,52.80
2019-03-22T18:07:00.924Z,52.17
2019-03-22T18:09:37.908Z,54.40
2019-03-22T18:12:12.359Z,51.60
2019-03-22T18:14:42.908Z,51.87
2019-03-22T18:17:15.376Z,51.73
2019-03-22T18:19:45.970Z,61.20
2019-03-22T18:22:16.547Z,58.30
2019-03-22T18:24:48.799Z,53.30
2019-03-22T18:27:19.071Z,58.53
2019-03-22T18:29:49.303Z,57.53
2019-03-22T18:32:19.682Z,59.27
2019-03-22T18:34:50.161Z,52.40
2019-03-22T18:37:23.684Z,53.83
2019-03-22T18:39:56.614Z,57.70
2019-03-22T18:42:27.432Z,51.97
2019-03-22T18:44:57.874Z,60.50
2019-03-22T18:47:28.148Z,63.13
2019-03-22T18:49:58.654Z,58.53
2019-03-22T18:52:28.984Z,64.77
2019-03-22T18:54:59.200Z,63.23
2019-03-22T18:57:29.393Z,63.30
2019-03-22T18:59:59.787Z,55.07
2019-03-22T19:02:29.980Z,58.33
2019-03-22T19:05:01.654Z,59.53
2019-03-22T19:07:33.578Z,58.00
2019-03-22T19:10:06.003Z,60.30
2019-03-22T19:12:36.305Z,61.93
2019-03-22T19:15:08.655Z,56.90
2019-03-22T19:17:41.427Z,59.53
2019-03-22T19:20:12.829Z,60.67
2019-03-22T19:22:43.866Z,60.53
2019-03-22T19:25:14.621Z,58.07
2019-03-22T19:27:45.652Z,61.70
2019-03-22T19:30:18.961Z,64.63
2019-03-22T19:32:49.536Z,57.40
2019-03-22T19:35:21.060Z,62.43
2019-03-22T19:37:52.823Z,74.97
2019-03-22T19:40:27.232Z,83.70
2019-03-22T19:42:57.397Z,74.93
2019-03-22T19:45:28.511Z,69.23
2019-03-22T19:48:01.181Z,75.97
2019-03-22T20:08:14.000Z,78.10
2019-03-22T20:10:44.279Z,66.97
2019-03-22T20:13:14.548Z,73.73
2019-03-22T20:15:44.837Z,92.43
2019-03-22T20:18:15.006Z,96.80
2019-03-22T20:20:45.237Z,79.27
2019-03-22T20:23:15.434Z,75.63
2019-03-22T20:25:45.666Z,77.80
2019-03-22T20:28:15.871Z,68.27
2019-03-22T20:30:46.466Z,62.97
2019-03-22T20:33:16.684Z,71.17
2019-03-22T20:35:46.930Z,72.87
2019-03-22T20:38:17.117Z,68.33
2019-03-22T20:40:47.686Z,71.13
2019-03-22T20:43:17.884Z,67.03
2019-03-22T20:45:48.197Z,70.50
2019-03-22T20:48:18.374Z,73.83
2019-03-22T20:50:48.633Z,72.93
2019-03-22T20:53:21.259Z,74.40
2019-03-22T20:55:51.660Z,90.50
2019-03-22T20:58:21.856Z,92.30
2019-03-22T21:00:52.039Z,65.43
2019-03-22T21:03:23.186Z,76.73
2019-03-22T21:05:53.434Z,93.73
2019-03-22T21:08:23.618Z,77.37
2019-03-22T21:10:53.862Z,75.80
2019-03-22T21:13:24.073Z,83.13
2019-03-22T21:15:54.351Z,80.97
2019-03-22T21:18:24.586Z,86.37
2019-03-22T21:20:54.821Z,79.40
2019-03-22T21:23:35.761Z,86.57
2019-03-22T21:25:56.934Z,75.63
2019-03-22T21:28:27.254Z,85.70
2019-03-22T21:30:57.530Z,83.00
2019-03-22T21:33:27.755Z,100.13
2019-03-22T21:35:57.976Z,94.83
2019-03-22T21:38:28.136Z,94.77
2019-03-22T21:40:58.294Z,92.63
2019-03-22T21:43:28.468Z,111.93
2019-03-22T21:45:58.753Z,106.87
2019-03-22T21:48:30.414Z,99.67
2019-03-22T21:51:00.625Z,101.07
2019-03-22T21:53:30.854Z,90.23
2019-03-22T21:56:01.020Z,95.33
2019-03-22T21:58:31.246Z,102.87
2019-03-22T22:01:01.393Z,97.57
2019-03-22T22:03:31.594Z,92.67
2019-03-22T22:06:01.915Z,85.10
2019-03-22T22:08:32.107Z,91.53
2019-03-22T22:11:02.301Z,84.10
2019-03-22T22:13:32.529Z,95.37
2019-03-22T22:16:02.743Z,93.67
2019-03-22T22:18:32.947Z,88.30
2019-03-22T22:21:03.086Z,89.77
2019-03-22T22:23:33.288Z,102.40
2019-03-22T22:26:03.473Z,88.87
2019-03-22T22:28:33.657Z,104.03
2019-03-22T22:31:03.847Z,107.63
2019-03-22T22:33:34.058Z,97.33
2019-03-22T22:36:04.219Z,90.40
2019-03-22T22:38:34.427Z,101.00
2019-03-22T22:41:04.580Z,114.33
2019-03-22T22:43:34.809Z,106.97
2019-03-22T22:46:04.959Z,118.17
2019-03-22T22:48:35.148Z,95.43
2019-03-22T22:51:06.405Z,89.70
2019-03-22T22:53:36.700Z,104.20
2019-03-22T22:56:06.992Z,110.83
2019-03-22T22:58:37.241Z,97.30
2019-03-22T23:01:07.608Z,103.03
2019-03-22T23:03:37.827Z,95.00
2019-03-22T23:06:09.755Z,98.07
2019-03-22T23:08:39.946Z,99.80
2019-03-22T23:11:10.130Z,85.07
2019-03-22T23:13:40.403Z,108.37
2019-03-22T23:16:10.652Z,89.70
2019-03-22T23:18:40.883Z,96.27
2019-03-22T23:21:11.145Z,94.70
2019-03-22T23:23:41.373Z,93.57
2019-03-22T23:26:11.576Z,112.87
2019-03-22T23:28:42.337Z,99.97
2019-03-22T23:31:12.630Z,106.57
2019-03-22T23:33:43.453Z,99.73
2019-03-22T23:36:20.271Z,101.37
2019-03-22T23:38:46.418Z,85.67
2019-03-22T23:41:19.959Z,107.00
2019-03-22T23:43:50.384Z,103.40
2019-03-22T23:46:20.538Z,98.07
2019-03-22T23:48:50.729Z,104.03
2019-03-22T23:51:20.907Z,103.37
2019-03-22T23:53:51.146Z,101.10
2019-03-22T23:56:21.629Z,104.10
2019-03-22T23:58:52.466Z,104.23
